EYVI/VNO METAR and TAF weather

Enter ICAO airport designator
Station Type Date Time Source
EYVI METAR 2020/01/19 02:50 UTC NOAA

EYVI 190250Z 19004KT 0450 R01/1200N FG VV001 00/00 Q1023 R01/2///95 NOSIG


Station Type Date Time Source
EYVI Decoded METAR 2020/01/19 02:50 UTC NOAA

Vilnius, Lithuania (EYVI) 54-38N 025-06E 156M
Jan 18, 2020 - 09:50 PM EST / 2020.01.19 0250 UTC
Wind: from the S (190 degrees) at 5 MPH (4 KT):0
Visibility: less than 1 mile:0
Sky conditions: obscured
Weather: fog
Temperature: 32 F (0 C)
Windchill: 26 F (-3 C):1
Dew Point: 32 F (0 C)
Relative Humidity: 100%
Pressure (altimeter): 30.21 in. Hg (1023 hPa)
ob: EYVI 190250Z 19004KT 0450 R01/1200N FG VV001 00/00 Q1023 R01/2///95 NOSIG
cycle: 3

Station Type Date Time Source
EYVI TAF 2020/01/18 18:09 UTC NOAA

TAF TAF EYVI 181705Z 1818/1918 19008KT 0800 FZDZ FZFG OVC002
TEMPO 1818/1821 1500 BR
TEMPO 1821/1906 0350
BECMG 1907/1909 2000 BR
TEMPO 1913/1918 4000 OVC005

Example: see airport list